Time;durP1;ratioP1;P1;durP2;ratioP2;P2;SDS_P1;SDS_P2;PMS_P1;PMS_P2;Temp;Humidity;BMP_temperature;BMP_pressure;BME280_temperature;BME280_humidity;BME280_pressure;Samples;Min_cycle;Max_cycle;Signal;HPM_P1;HPM_P2
2023/12/01 00:01:00;;;;;;;60.00;25.63;;;;;;;;;;2077725;28;20055;-82
2023/12/01 00:02:21;;;;;;;62.10;25.65;;;;;;;;;;2076362;28;20457;-81
2023/12/01 00:03:42;;;;;;;56.50;23.27;;;;;;;;;;2076826;28;20029;-82
2023/12/01 00:05:04;;;;;;;66.50;25.48;;;;;;;;;;2077592;28;20037;-81
2023/12/01 00:06:24;;;;;;;53.97;24.38;;;;;;;;;;2078933;28;20041;-80
2023/12/01 00:07:45;;;;;;;64.20;24.75;;;;;;;;;;2083683;28;20136;-82
2023/12/01 00:09:06;;;;;;;57.05;24.33;;;;;;;;;;2080288;28;20053;-83
2023/12/01 00:10:27;;;;;;;60.38;22.48;;;;;;;;;;2084757;28;20040;-80
2023/12/01 00:11:48;;;;;;;65.22;25.33;;;;;;;;;;2078967;28;20025;-80
2023/12/01 00:13:09;;;;;;;55.78;26.27;;;;;;;;;;2077895;28;20092;-81
2023/12/01 00:14:30;;;;;;;68.93;26.10;;;;;;;;;;2089963;28;20040;-81
2023/12/01 00:15:51;;;;;;;64.80;24.55;;;;;;;;;;2078018;28;20025;-81
2023/12/01 00:17:12;;;;;;;56.72;24.15;;;;;;;;;;2075390;28;20033;-79
2023/12/01 00:18:33;;;;;;;71.47;25.30;;;;;;;;;;2075298;28;20350;-82
2023/12/01 00:19:53;;;;;;;55.53;25.23;;;;;;;;;;2077817;28;20042;-81
2023/12/01 00:21:14;;;;;;;61.55;24.65;;;;;;;;;;2073986;28;20038;-79
2023/12/01 00:22:35;;;;;;;71.75;25.55;;;;;;;;;;2076759;28;20030;-82
2023/12/01 00:23:56;;;;;;;64.78;25.90;;;;;;;;;;2071991;28;20107;-78
2023/12/01 00:25:17;;;;;;;59.55;26.27;;;;;;;;;;2076909;28;20038;-82
2023/12/01 00:26:39;;;;;;;66.85;24.92;;;;;;;;;;2076107;28;20425;-82
2023/12/01 00:28:00;;;;;;;69.90;26.60;;;;;;;;;;2079836;28;20033;-83
2023/12/01 00:29:21;;;;;;;70.55;26.27;;;;;;;;;;2081431;28;20097;-83
2023/12/01 00:30:42;;;;;;;60.42;22.83;;;;;;;;;;2077939;28;20064;-83
2023/12/01 00:32:03;;;;;;;57.63;24.38;;;;;;;;;;2079254;28;20048;-83
2023/12/01 00:33:25;;;;;;;58.08;23.13;;;;;;;;;;2074053;28;20061;-82
2023/12/01 00:34:46;;;;;;;59.38;23.58;;;;;;;;;;2079396;28;20087;-83
2023/12/01 00:36:07;;;;;;;51.38;23.27;;;;;;;;;;2077767;28;20025;-83
2023/12/01 00:37:28;;;;;;;64.50;24.17;;;;;;;;;;2080127;28;20026;-83
2023/12/01 00:38:49;;;;;;;59.92;24.50;;;;;;;;;;2077670;28;20034;-82
2023/12/01 00:40:10;;;;;;;60.28;23.50;;;;;;;;;;2080247;28;20068;-83
2023/12/01 00:41:32;;;;;;;56.95;23.15;;;;;;;;;;2080182;28;20041;-82
2023/12/01 00:42:53;;;;;;;66.38;25.95;;;;;;;;;;2082328;28;20034;-83
2023/12/01 00:44:16;;;;;;;58.75;24.15;;;;;;;;;;2086125;28;20155;-82
2023/12/01 00:45:37;;;;;;;60.53;24.42;;;;;;;;;;2088892;28;20618;-83
2023/12/01 00:46:58;;;;;;;53.15;23.27;;;;;;;;;;2080820;28;20037;-82
2023/12/01 00:48:19;;;;;;;55.88;22.92;;;;;;;;;;2070883;28;20045;-83
2023/12/01 00:49:40;;;;;;;63.08;25.27;;;;;;;;;;2079328;28;20050;-83
2023/12/01 00:51:01;;;;;;;60.17;23.08;;;;;;;;;;2091720;28;20049;-82
2023/12/01 00:52:24;;;;;;;;;;;;;;;;;;2098351;28;20037;-82
2023/12/01 00:53:48;;;;;;;57.40;22.60;;;;;;;;;;2072418;28;19909;-82
2023/12/01 00:55:08;;;;;;;55.05;22.52;;;;;;;;;;2078792;28;20937;-83
2023/12/01 00:56:29;;;;;;;59.40;23.65;;;;;;;;;;2071696;28;20045;-83
2023/12/01 00:57:53;;;;;;;61.08;24.35;;;;;;;;;;2076774;28;20033;-83
2023/12/01 00:59:14;;;;;;;60.38;24.73;;;;;;;;;;2076337;28;20033;-82
2023/12/01 01:00:35;;;;;;;53.70;21.45;;;;;;;;;;2075718;28;20038;-82
2023/12/01 01:01:56;;;;;;;52.63;21.02;;;;;;;;;;2081382;28;20087;-82
2023/12/01 01:03:17;;;;;;;54.20;22.23;;;;;;;;;;2079413;28;20519;-82
2023/12/01 01:04:38;;;;;;;50.67;20.95;;;;;;;;;;2077486;28;20075;-82
2023/12/01 01:06:00;;;;;;;61.28;22.92;;;;;;;;;;2080593;28;20517;-82
2023/12/01 01:07:21;;;;;;;56.42;24.25;;;;;;;;;;2075966;28;20067;-82
2023/12/01 01:08:42;;;;;;;58.05;22.20;;;;;;;;;;2077949;28;20489;-83
2023/12/01 01:10:03;;;;;;;56.83;23.52;;;;;;;;;;2075942;28;20100;-82
2023/12/01 01:11:23;;;;;;;53.53;20.77;;;;;;;;;;2084395;28;20033;-82
2023/12/01 01:12:44;;;;;;;63.45;23.67;;;;;;;;;;2088188;28;20109;-83
2023/12/01 01:14:05;;;;;;;62.85;22.20;;;;;;;;;;2080797;28;20083;-81
2023/12/01 01:15:26;;;;;;;57.50;21.13;;;;;;;;;;2078611;28;20077;-83
2023/12/01 01:16:47;;;;;;;66.95;24.45;;;;;;;;;;2085236;28;20412;-82
2023/12/01 01:18:08;;;;;;;69.78;27.23;;;;;;;;;;2074470;28;20029;-83
2023/12/01 01:19:29;;;;;;;64.32;24.55;;;;;;;;;;2078008;28;20037;-82
2023/12/01 01:20:50;;;;;;;67.38;25.52;;;;;;;;;;2086470;28;20390;-82
2023/12/01 01:22:11;;;;;;;58.28;24.75;;;;;;;;;;2087130;28;20036;-83
2023/12/01 01:23:32;;;;;;;61.33;24.40;;;;;;;;;;2078326;28;20026;-82
2023/12/01 01:24:53;;;;;;;61.38;23.52;;;;;;;;;;2081643;28;20322;-82
2023/12/01 01:26:14;;;;;;;57.25;22.60;;;;;;;;;;2089653;28;20037;-82
2023/12/01 01:27:35;;;;;;;62.20;23.73;;;;;;;;;;2078330;28;20045;-82
2023/12/01 01:28:56;;;;;;;60.97;23.23;;;;;;;;;;2077229;28;20086;-82
2023/12/01 01:30:17;;;;;;;58.20;23.02;;;;;;;;;;2075822;28;20076;-81
2023/12/01 01:31:37;;;;;;;68.28;25.98;;;;;;;;;;2075457;28;20515;-83
2023/12/01 01:32:58;;;;;;;66.00;25.35;;;;;;;;;;2075553;28;20049;-81
2023/12/01 01:34:19;;;;;;;67.45;24.98;;;;;;;;;;2083202;28;20025;-82
2023/12/01 01:35:40;;;;;;;67.15;24.48;;;;;;;;;;2077289;28;20386;-82
2023/12/01 01:37:01;;;;;;;69.00;24.10;;;;;;;;;;2086233;28;20098;-83
2023/12/01 01:38:22;;;;;;;60.03;24.23;;;;;;;;;;2075421;28;20030;-83
2023/12/01 01:39:43;;;;;;;59.75;24.08;;;;;;;;;;2078988;28;20030;-82
2023/12/01 01:41:04;;;;;;;61.83;24.38;;;;;;;;;;2082675;28;20038;-82
2023/12/01 01:42:25;;;;;;;72.97;26.02;;;;;;;;;;2078865;28;20029;-82
2023/12/01 01:43:46;;;;;;;67.50;24.55;;;;;;;;;;2078927;28;20441;-82
2023/12/01 01:45:07;;;;;;;62.95;24.95;;;;;;;;;;2082822;28;20030;-82
2023/12/01 01:46:28;;;;;;;62.47;24.20;;;;;;;;;;2087382;28;20369;-82
2023/12/01 01:47:49;;;;;;;69.13;24.67;;;;;;;;;;2092752;28;20025;-82
2023/12/01 01:49:10;;;;;;;75.07;25.90;;;;;;;;;;2082473;28;20029;-83
2023/12/01 01:50:31;;;;;;;64.22;23.73;;;;;;;;;;2089974;28;20040;-83
2023/12/01 01:51:56;;;;;;;62.85;24.85;;;;;;;;;;2082370;28;20033;-83
2023/12/01 01:53:17;;;;;;;61.90;23.60;;;;;;;;;;2080050;28;20156;-83
2023/12/01 01:54:38;;;;;;;61.13;25.83;;;;;;;;;;2088968;28;20033;-82
2023/12/01 01:55:59;;;;;;;72.63;27.50;;;;;;;;;;2089836;28;20078;-82
2023/12/01 01:57:20;;;;;;;62.55;25.23;;;;;;;;;;2091776;28;20033;-83
2023/12/01 01:58:41;;;;;;;58.28;23.40;;;;;;;;;;2082327;28;20095;-83
2023/12/01 02:00:02;;;;;;;70.80;26.40;;;;;;;;;;2081461;28;20030;-82
2023/12/01 02:01:25;;;;;;;71.85;24.98;;;;;;;;;;2078635;28;20034;-82
2023/12/01 02:02:47;;;;;;;69.10;26.45;;;;;;;;;;2088913;28;20036;-83
2023/12/01 02:04:08;;;;;;;69.05;25.13;;;;;;;;;;2081226;28;20501;-82
2023/12/01 02:05:29;;;;;;;59.28;24.75;;;;;;;;;;2080378;28;20068;-82
2023/12/01 02:06:50;;;;;;;65.13;25.95;;;;;;;;;;2078845;28;20041;-82
2023/12/01 02:08:24;;;;;;;66.65;24.88;;;;;;;;;;2084012;28;20037;-81
2023/12/01 02:09:45;;;;;;;73.50;27.52;;;;;;;;;;2085676;28;20021;-81
2023/12/01 02:11:06;;;;;;;63.70;26.33;;;;;;;;;;2083161;28;20508;-82
2023/12/01 02:12:27;;;;;;;62.85;24.67;;;;;;;;;;2074294;28;20025;-82
2023/12/01 02:13:48;;;;;;;80.55;26.45;;;;;;;;;;2077850;28;20030;-82
2023/12/01 02:15:10;;;;;;;75.95;26.77;;;;;;;;;;2078582;28;20440;-82
2023/12/01 02:16:31;;;;;;;65.05;24.35;;;;;;;;;;2082842;28;20481;-83
2023/12/01 02:17:52;;;;;;;68.43;23.90;;;;;;;;;;2081081;28;20038;-83
2023/12/01 02:19:13;;;;;;;66.18;25.92;;;;;;;;;;2079555;28;20042;-82
2023/12/01 02:20:35;;;;;;;65.78;26.25;;;;;;;;;;2078692;28;20115;-82
2023/12/01 02:21:56;;;;;;;78.68;25.35;;;;;;;;;;2077149;28;20030;-82
2023/12/01 02:23:17;;;;;;;78.93;25.17;;;;;;;;;;2087013;28;20029;-81
2023/12/01 02:24:38;;;;;;;69.57;23.73;;;;;;;;;;2077557;28;20068;-82
2023/12/01 02:26:00;;;;;;;78.07;24.00;;;;;;;;;;2077313;28;20041;-82
2023/12/01 02:27:21;;;;;;;;;;;;;;;;;;2080827;28;20037;-82
2023/12/01 02:28:42;;;;;;;81.22;24.25;;;;;;;;;;2085178;28;21326;-83
2023/12/01 02:30:03;;;;;;;79.68;25.52;;;;;;;;;;2078947;28;20045;-82
2023/12/01 02:31:24;;;;;;;84.95;26.50;;;;;;;;;;2076537;28;20056;-82
2023/12/01 02:32:45;;;;;;;78.68;25.13;;;;;;;;;;2074415;28;20386;-83
2023/12/01 02:34:06;;;;;;;76.68;25.77;;;;;;;;;;2077530;28;20041;-83
2023/12/01 02:35:29;;;;;;;83.95;26.30;;;;;;;;;;2074643;28;20021;-83
2023/12/01 02:36:50;;;;;;;76.75;25.40;;;;;;;;;;2084391;28;20032;-82
2023/12/01 02:38:11;;;;;;;67.05;24.48;;;;;;;;;;2079661;28;20084;-82
2023/12/01 02:39:36;;;;;;;85.60;25.95;;;;;;;;;;2076794;28;20646;-83
2023/12/01 02:40:57;;;;;;;65.72;22.02;;;;;;;;;;2089263;28;20040;-82
2023/12/01 02:42:18;;;;;;;72.95;25.92;;;;;;;;;;2080184;28;20041;-82
2023/12/01 02:43:39;;;;;;;72.78;24.98;;;;;;;;;;2079714;28;20076;-83
2023/12/01 02:45:00;;;;;;;78.70;26.27;;;;;;;;;;2078431;28;20112;-83
2023/12/01 02:46:22;;;;;;;79.05;25.40;;;;;;;;;;2083758;28;20091;-83
2023/12/01 02:47:45;;;;;;;74.30;26.67;;;;;;;;;;2079426;28;20496;-83
2023/12/01 02:49:08;;;;;;;77.75;27.30;;;;;;;;;;2083437;28;20041;-82
2023/12/01 02:50:29;;;;;;;79.57;26.80;;;;;;;;;;2079121;28;20037;-82
2023/12/01 02:51:49;;;;;;;82.68;26.55;;;;;;;;;;2076289;28;20493;-82
2023/12/01 02:53:10;;;;;;;81.78;26.20;;;;;;;;;;2078891;28;20075;-83
2023/12/01 02:54:31;;;;;;;79.47;25.73;;;;;;;;;;2074262;28;20036;-82
2023/12/01 02:55:52;;;;;;;92.10;29.42;;;;;;;;;;2066609;28;20401;-82
2023/12/01 02:57:13;;;;;;;86.85;29.17;;;;;;;;;;2075261;28;20025;-82
2023/12/01 02:58:34;;;;;;;101.00;30.20;;;;;;;;;;2076917;28;20045;-83
2023/12/01 02:59:55;;;;;;;79.78;27.10;;;;;;;;;;2077464;28;20030;-83
2023/12/01 03:01:16;;;;;;;91.95;32.20;;;;;;;;;;2077529;28;20090;-83
2023/12/01 03:02:37;;;;;;;93.28;28.27;;;;;;;;;;2082076;28;20052;-83
2023/12/01 03:03:58;;;;;;;102.40;31.27;;;;;;;;;;2090231;28;20029;-83
2023/12/01 03:05:19;;;;;;;73.88;26.77;;;;;;;;;;2086784;28;20087;-82
2023/12/01 03:06:42;;;;;;;98.22;27.58;;;;;;;;;;2085548;28;20080;-81
2023/12/01 03:08:03;;;;;;;;;;;;;;;;;;2091183;28;20079;-83
2023/12/01 03:09:23;;;;;;;82.82;25.95;;;;;;;;;;2077995;28;19917;-82
2023/12/01 03:10:44;;;;;;;94.80;29.50;;;;;;;;;;2081279;28;20052;-82
2023/12/01 03:12:05;;;;;;;89.72;26.65;;;;;;;;;;2086753;28;20041;-82
2023/12/01 03:13:26;;;;;;;76.93;23.88;;;;;;;;;;2079092;28;20088;-83
2023/12/01 03:14:47;;;;;;;77.90;26.42;;;;;;;;;;2085757;28;20499;-82
2023/12/01 03:16:11;;;;;;;83.63;26.70;;;;;;;;;;2078862;28;20045;-82
2023/12/01 03:17:31;;;;;;;72.63;24.65;;;;;;;;;;2073576;28;20075;-82
2023/12/01 03:18:52;;;;;;;80.97;24.98;;;;;;;;;;2080885;28;20051;-83
2023/12/01 03:20:14;;;;;;;64.88;22.95;;;;;;;;;;2076256;28;20091;-83
2023/12/01 03:21:35;;;;;;;65.78;22.58;;;;;;;;;;2074908;28;20099;-82
2023/12/01 03:22:56;;;;;;;67.70;23.10;;;;;;;;;;2072936;28;20575;-81
2023/12/01 03:24:17;;;;;;;63.03;22.50;;;;;;;;;;2075305;28;20029;-82
2023/12/01 03:25:38;;;;;;;75.00;23.40;;;;;;;;;;2076419;28;21854;-82
2023/12/01 03:26:59;;;;;;;65.35;22.10;;;;;;;;;;2079016;28;20088;-82
2023/12/01 03:28:20;;;;;;;72.50;23.70;;;;;;;;;;2077966;28;20060;-83
2023/12/01 03:29:41;;;;;;;79.22;24.13;;;;;;;;;;2087194;28;20099;-83
2023/12/01 03:31:02;;;;;;;73.90;24.00;;;;;;;;;;2079227;28;20060;-82
2023/12/01 03:32:23;;;;;;;83.65;25.05;;;;;;;;;;2075128;28;20049;-83
2023/12/01 03:33:44;;;;;;;68.22;23.52;;;;;;;;;;2081485;28;20041;-82
2023/12/01 03:35:05;;;;;;;60.40;22.40;;;;;;;;;;2075258;28;20049;-82
2023/12/01 03:36:26;;;;;;;62.70;21.67;;;;;;;;;;2075900;28;20033;-83
2023/12/01 03:37:47;;;;;;;70.88;23.27;;;;;;;;;;2075286;28;20041;-82
2023/12/01 03:39:09;;;;;;;71.10;23.58;;;;;;;;;;2076482;28;20018;-83
2023/12/01 03:40:30;;;;;;;82.30;25.30;;;;;;;;;;2073778;28;20112;-83
2023/12/01 03:41:52;;;;;;;76.97;26.42;;;;;;;;;;2085041;28;20059;-82
2023/12/01 03:43:13;;;;;;;76.20;24.30;;;;;;;;;;2088502;28;20025;-82
2023/12/01 03:44:34;;;;;;;72.75;23.38;;;;;;;;;;2093444;28;20032;-83
2023/12/01 03:45:55;;;;;;;72.10;24.02;;;;;;;;;;2087411;28;20400;-82
2023/12/01 03:47:16;;;;;;;63.17;21.48;;;;;;;;;;2074562;28;20034;-82
2023/12/01 03:48:37;;;;;;;78.00;24.70;;;;;;;;;;2080102;28;20029;-82
2023/12/01 03:49:57;;;;;;;84.88;24.77;;;;;;;;;;2085301;28;20026;-82
2023/12/01 03:51:18;;;;;;;81.28;25.95;;;;;;;;;;2095587;28;20095;-82
2023/12/01 03:52:41;;;;;;;70.03;24.13;;;;;;;;;;2088019;28;20021;-82
2023/12/01 03:54:02;;;;;;;72.97;23.02;;;;;;;;;;2085622;28;20033;-82
2023/12/01 03:55:23;;;;;;;91.63;25.77;;;;;;;;;;2073085;28;20038;-82
2023/12/01 03:56:44;;;;;;;78.82;24.45;;;;;;;;;;2095164;28;20044;-82
2023/12/01 03:58:05;;;;;;;87.68;26.30;;;;;;;;;;2095583;28;20035;-82
2023/12/01 03:59:26;;;;;;;80.03;24.10;;;;;;;;;;2081158;28;20021;-82
2023/12/01 04:00:47;;;;;;;79.43;24.83;;;;;;;;;;2080635;28;20034;-82
2023/12/01 04:02:08;;;;;;;81.22;25.02;;;;;;;;;;2074368;28;20034;-82
2023/12/01 04:03:29;;;;;;;60.30;21.65;;;;;;;;;;2081427;28;20030;-82
2023/12/01 04:04:50;;;;;;;77.57;25.15;;;;;;;;;;2079531;28;20040;-81
2023/12/01 04:06:11;;;;;;;82.72;26.95;;;;;;;;;;2077879;28;20472;-82
2023/12/01 04:07:33;;;;;;;86.97;27.20;;;;;;;;;;2087835;28;20037;-83
2023/12/01 04:08:53;;;;;;;79.13;26.80;;;;;;;;;;2080790;28;20497;-82
2023/12/01 04:10:14;;;;;;;77.45;24.20;;;;;;;;;;2072692;28;20092;-82
2023/12/01 04:11:37;;;;;;;72.63;23.35;;;;;;;;;;2081910;28;20040;-82
2023/12/01 04:13:06;;;;;;;82.18;26.33;;;;;;;;;;2086509;28;20033;-83
2023/12/01 04:14:28;;;;;;;92.88;25.10;;;;;;;;;;2083878;28;20036;-82
2023/12/01 04:15:49;;;;;;;80.60;27.80;;;;;;;;;;2076337;28;20029;-82
2023/12/01 04:17:10;;;;;;;78.25;24.25;;;;;;;;;;2077769;28;20506;-82
2023/12/01 04:18:31;;;;;;;82.05;26.90;;;;;;;;;;2080371;28;20081;-81
2023/12/01 04:19:52;;;;;;;75.80;24.10;;;;;;;;;;2085214;28;20492;-82
2023/12/01 04:21:13;;;;;;;96.78;27.30;;;;;;;;;;2077908;28;20037;-83
2023/12/01 04:22:33;;;;;;;86.63;27.00;;;;;;;;;;2083319;28;20036;-79
2023/12/01 04:23:54;;;;;;;71.32;24.88;;;;;;;;;;2075632;28;20125;-82
2023/12/01 04:25:16;;;;;;;95.15;29.13;;;;;;;;;;2079565;28;20618;-82
2023/12/01 04:26:37;;;;;;;99.53;27.40;;;;;;;;;;2077682;28;20048;-83
2023/12/01 04:27:58;;;;;;;85.60;27.05;;;;;;;;;;2077997;28;20036;-79
2023/12/01 04:29:19;;;;;;;96.72;27.92;;;;;;;;;;2082633;28;20032;-82
2023/12/01 04:30:40;;;;;;;83.18;28.08;;;;;;;;;;2080650;28;20033;-82
2023/12/01 04:32:01;;;;;;;99.23;28.60;;;;;;;;;;2075865;28;20068;-82
2023/12/01 04:33:22;;;;;;;84.38;25.50;;;;;;;;;;2072006;28;20443;-82
2023/12/01 04:34:43;;;;;;;91.25;27.00;;;;;;;;;;2084466;28;20078;-81
2023/12/01 04:36:06;;;;;;;86.83;27.33;;;;;;;;;;2088082;28;20329;-83
2023/12/01 04:37:27;;;;;;;104.95;29.77;;;;;;;;;;2077148;28;20435;-82
2023/12/01 04:38:48;;;;;;;106.53;30.23;;;;;;;;;;2075234;28;20155;-82
2023/12/01 04:40:15;;;;;;;93.65;28.88;;;;;;;;;;2075101;28;20033;-82
2023/12/01 04:41:36;;;;;;;84.00;26.92;;;;;;;;;;2075846;28;20037;-83
2023/12/01 04:42:57;;;;;;;95.28;29.90;;;;;;;;;;2074236;28;20045;-81
2023/12/01 04:44:18;;;;;;;91.70;29.00;;;;;;;;;;2078224;28;20025;-82
2023/12/01 04:45:39;;;;;;;86.18;29.30;;;;;;;;;;2083566;28;20032;-81
2023/12/01 04:47:00;;;;;;;87.03;29.88;;;;;;;;;;2075490;28;20034;-82
2023/12/01 04:48:21;;;;;;;99.60;30.42;;;;;;;;;;2074665;28;20512;-82
2023/12/01 04:49:42;;;;;;;93.45;31.80;;;;;;;;;;2074837;28;20044;-82
2023/12/01 04:51:02;;;;;;;101.80;31.35;;;;;;;;;;2074386;28;20313;-82
2023/12/01 04:52:23;;;;;;;84.60;29.35;;;;;;;;;;2078340;28;20485;-82
2023/12/01 04:53:44;;;;;;;82.15;27.90;;;;;;;;;;2074667;28;20041;-82
2023/12/01 04:55:06;;;;;;;87.32;29.17;;;;;;;;;;2077412;28;20111;-82
2023/12/01 04:56:27;;;;;;;84.63;30.80;;;;;;;;;;2078281;28;20092;-83
2023/12/01 04:57:48;;;;;;;74.40;28.55;;;;;;;;;;2082739;28;20101;-83
2023/12/01 04:59:08;;;;;;;98.60;33.45;;;;;;;;;;2088261;28;20037;-82
2023/12/01 05:00:29;;;;;;;85.32;30.20;;;;;;;;;;2082213;28;20033;-81
2023/12/01 05:01:50;;;;;;;90.55;30.42;;;;;;;;;;2087393;28;20542;-82
2023/12/01 05:03:11;;;;;;;82.80;29.88;;;;;;;;;;2074799;28;20030;-81
2023/12/01 05:04:32;;;;;;;93.55;31.27;;;;;;;;;;2079085;28;20056;-85
2023/12/01 05:05:53;;;;;;;81.85;27.38;;;;;;;;;;2075596;28;20033;-83
2023/12/01 05:07:14;;;;;;;72.13;28.45;;;;;;;;;;2076602;28;20034;-82
2023/12/01 05:08:35;;;;;;;80.85;27.50;;;;;;;;;;2073654;28;20468;-83
2023/12/01 05:09:56;;;;;;;83.80;30.30;;;;;;;;;;2081897;28;20177;-82
2023/12/01 05:11:17;;;;;;;71.80;26.35;;;;;;;;;;2077176;28;20049;-83
2023/12/01 05:12:37;;;;;;;86.60;29.23;;;;;;;;;;2085127;28;20299;-84
2023/12/01 05:13:58;;;;;;;68.00;25.17;;;;;;;;;;2088302;28;20036;-82
2023/12/01 05:15:21;;;;;;;73.68;28.63;;;;;;;;;;2089544;28;20470;-82
2023/12/01 05:16:42;;;;;;;66.53;24.45;;;;;;;;;;2087517;28;20451;-83
2023/12/01 05:18:07;;;;;;;74.60;27.05;;;;;;;;;;2090255;28;20032;-83
2023/12/01 05:19:28;;;;;;;75.35;25.60;;;;;;;;;;2080150;28;20532;-83
2023/12/01 05:20:48;;;;;;;67.75;26.38;;;;;;;;;;2078816;28;20029;-82
2023/12/01 05:22:09;;;;;;;70.05;27.40;;;;;;;;;;2087819;28;20032;-82
2023/12/01 05:23:30;;;;;;;65.10;24.67;;;;;;;;;;2079057;28;20112;-84
2023/12/01 05:24:51;;;;;;;65.32;25.00;;;;;;;;;;2085243;28;20037;-83
2023/12/01 05:26:12;;;;;;;67.80;26.85;;;;;;;;;;2080498;28;20029;-83
2023/12/01 05:27:33;;;;;;;64.13;24.02;;;;;;;;;;2081115;28;20033;-83
2023/12/01 05:28:55;;;;;;;68.20;26.92;;;;;;;;;;2087442;28;20512;-83
2023/12/01 05:30:20;;;;;;;71.00;28.02;;;;;;;;;;2079312;28;20037;-81
2023/12/01 05:31:41;;;;;;;60.80;26.25;;;;;;;;;;2085117;28;20036;-84
2023/12/01 05:33:04;;;;;;;61.42;24.80;;;;;;;;;;2081839;28;20025;-83
2023/12/01 05:34:25;;;;;;;70.65;26.60;;;;;;;;;;2078336;28;20033;-83
2023/12/01 05:35:46;;;;;;;75.97;27.67;;;;;;;;;;2078176;28;20042;-83
2023/12/01 05:37:07;;;;;;;71.97;27.40;;;;;;;;;;2085332;28;20029;-83
2023/12/01 05:38:29;;;;;;;68.10;25.70;;;;;;;;;;2079643;28;20029;-82
2023/12/01 05:39:50;;;;;;;72.43;27.88;;;;;;;;;;2079711;28;20406;-82
2023/12/01 05:41:11;;;;;;;68.95;28.30;;;;;;;;;;2083311;28;20083;-81
2023/12/01 05:42:32;;;;;;;60.65;25.02;;;;;;;;;;2089478;28;20560;-83
2023/12/01 05:43:53;;;;;;;59.17;23.50;;;;;;;;;;2087025;28;20029;-82
2023/12/01 05:45:15;;;;;;;62.22;25.92;;;;;;;;;;2081913;28;20041;-82
2023/12/01 05:46:36;;;;;;;73.28;25.17;;;;;;;;;;2087515;28;20500;-83
2023/12/01 05:47:56;;;;;;;63.60;24.98;;;;;;;;;;2074796;28;20045;-82
2023/12/01 05:49:17;;;;;;;67.80;26.30;;;;;;;;;;2079480;28;20044;-83
2023/12/01 05:50:42;;;;;;;74.25;28.63;;;;;;;;;;2082155;28;20025;-84
2023/12/01 05:52:03;;;;;;;61.50;25.23;;;;;;;;;;2080317;28;20413;-84
2023/12/01 05:53:24;;;;;;;77.30;28.13;;;;;;;;;;2082473;28;20036;-84
2023/12/01 05:54:45;;;;;;;72.78;27.10;;;;;;;;;;2075209;28;20370;-83
2023/12/01 05:56:06;;;;;;;62.97;24.10;;;;;;;;;;2080374;28;20044;-83
2023/12/01 05:57:27;;;;;;;63.85;25.63;;;;;;;;;;2081704;28;20382;-81
2023/12/01 05:58:48;;;;;;;66.15;25.35;;;;;;;;;;2081051;28;20076;-80
2023/12/01 06:00:13;;;;;;;62.45;23.30;;;;;;;;;;2079822;28;20037;-84
2023/12/01 06:01:34;;;;;;;65.15;24.35;;;;;;;;;;2088141;28;20496;-84
2023/12/01 06:02:55;;;;;;;69.93;26.67;;;;;;;;;;2088808;28;20032;-83
2023/12/01 06:04:16;;;;;;;69.50;27.55;;;;;;;;;;2081845;28;20132;-83
2023/12/01 06:05:38;;;;;;;64.57;25.77;;;;;;;;;;2072562;28;20112;-83
2023/12/01 06:06:59;;;;;;;57.53;23.93;;;;;;;;;;2080430;28;20029;-83
2023/12/01 06:08:19;;;;;;;68.13;25.17;;;;;;;;;;2076411;28;20521;-82
2023/12/01 06:09:40;;;;;;;64.65;22.83;;;;;;;;;;2075994;28;20068;-82
2023/12/01 06:11:01;;;;;;;63.00;25.50;;;;;;;;;;2083626;28;20098;-83
2023/12/01 06:12:22;;;;;;;63.28;25.02;;;;;;;;;;2078833;28;20406;-81
2023/12/01 06:13:43;;;;;;;58.00;25.15;;;;;;;;;;2078310;28;20084;-82
2023/12/01 06:15:09;;;;;;;60.58;24.35;;;;;;;;;;2078682;28;20038;-82
2023/12/01 06:16:30;;;;;;;69.57;25.85;;;;;;;;;;2077784;28;20103;-82
2023/12/01 06:17:51;;;;;;;64.35;25.45;;;;;;;;;;2083606;28;20033;-82
2023/12/01 06:19:12;;;;;;;63.72;24.92;;;;;;;;;;2086816;28;20052;-82
2023/12/01 06:20:34;;;;;;;59.00;23.48;;;;;;;;;;2076267;28;20040;-82
2023/12/01 06:21:57;;;;;;;62.83;23.95;;;;;;;;;;2074734;28;20034;-84
2023/12/01 06:23:19;;;;;;;57.90;24.65;;;;;;;;;;2087476;28;20025;-83
2023/12/01 06:24:40;;;;;;;68.55;24.10;;;;;;;;;;2081343;28;20057;-82
2023/12/01 06:26:01;;;;;;;51.25;22.33;;;;;;;;;;2085653;28;20041;-82
2023/12/01 06:27:25;;;;;;;59.38;23.65;;;;;;;;;;2080483;28;20037;-83
2023/12/01 06:28:46;;;;;;;56.80;23.00;;;;;;;;;;2077088;28;20030;-83
2023/12/01 06:30:13;;;;;;;64.60;25.85;;;;;;;;;;2081906;28;20520;-81
2023/12/01 06:31:34;;;;;;;59.83;25.15;;;;;;;;;;2076013;28;20401;-82
2023/12/01 06:32:55;;;;;;;61.58;25.73;;;;;;;;;;2077764;28;20087;-82
2023/12/01 06:34:16;;;;;;;59.13;23.20;;;;;;;;;;2075960;28;20029;-79
2023/12/01 06:35:37;;;;;;;62.35;24.10;;;;;;;;;;2074112;28;20046;-82
2023/12/01 06:36:59;;;;;;;54.50;22.20;;;;;;;;;;2076658;28;20034;-83
2023/12/01 06:38:20;;;;;;;55.42;23.52;;;;;;;;;;2085377;28;20029;-83
2023/12/01 06:39:41;;;;;;;58.63;23.58;;;;;;;;;;2077891;28;20029;-82
2023/12/01 06:41:02;;;;;;;55.63;22.70;;;;;;;;;;2077658;28;20435;-82
2023/12/01 06:42:23;;;;;;;72.32;25.92;;;;;;;;;;2079186;28;20037;-82
2023/12/01 06:43:44;;;;;;;60.75;23.52;;;;;;;;;;2075558;28;20037;-82
2023/12/01 06:45:05;;;;;;;68.93;24.35;;;;;;;;;;2078661;28;20033;-83
2023/12/01 06:46:27;;;;;;;59.40;24.50;;;;;;;;;;2087034;28;20120;-82
2023/12/01 06:47:48;;;;;;;;;;;;;;;;;;2077586;28;20430;-81
2023/12/01 06:49:09;;;;;;;63.03;23.02;;;;;;;;;;2085142;28;19913;-80
2023/12/01 06:50:32;;;;;;;60.40;23.70;;;;;;;;;;2080721;28;20084;-82
2023/12/01 06:51:54;;;;;;;56.38;23.80;;;;;;;;;;2078401;28;20048;-83
2023/12/01 06:53:15;;;;;;;55.33;22.40;;;;;;;;;;2077673;28;20026;-82
2023/12/01 06:54:36;;;;;;;63.42;24.75;;;;;;;;;;2082956;28;20068;-79
2023/12/01 06:55:57;;;;;;;61.05;23.58;;;;;;;;;;2086506;28;20040;-81
2023/12/01 06:57:18;;;;;;;61.85;25.55;;;;;;;;;;2087037;28;20034;-79
2023/12/01 06:58:39;;;;;;;61.83;25.20;;;;;;;;;;2077162;28;20033;-80
2023/12/01 07:00:00;;;;;;;58.08;22.95;;;;;;;;;;2076555;28;20018;-81
2023/12/01 07:01:21;;;;;;;55.95;23.80;;;;;;;;;;2076573;28;20381;-81
2023/12/01 07:02:42;;;;;;;55.88;23.80;;;;;;;;;;2076073;28;20034;-80
2023/12/01 07:04:07;;;;;;;61.70;23.02;;;;;;;;;;2076660;28;20034;-83
2023/12/01 07:05:29;;;;;;;58.65;23.52;;;;;;;;;;2075751;28;20434;-83
2023/12/01 07:06:50;;;;;;;61.08;23.70;;;;;;;;;;2083808;28;20041;-82
2023/12/01 07:08:12;;;;;;;64.07;26.25;;;;;;;;;;2084967;28;20489;-82
2023/12/01 07:09:33;;;;;;;58.17;24.17;;;;;;;;;;2077816;28;20037;-83
2023/12/01 07:10:54;;;;;;;55.58;24.08;;;;;;;;;;2074138;28;20128;-82
2023/12/01 07:12:15;;;;;;;67.72;26.92;;;;;;;;;;2076242;28;20190;-82
2023/12/01 07:13:36;;;;;;;68.68;24.05;;;;;;;;;;2079178;28;20033;-82
2023/12/01 07:14:57;;;;;;;60.75;23.35;;;;;;;;;;2086719;28;20075;-84
2023/12/01 07:16:19;;;;;;;54.28;22.08;;;;;;;;;;2077524;28;20412;-84
2023/12/01 07:17:40;;;;;;;56.97;22.80;;;;;;;;;;2075743;28;20390;-84
2023/12/01 07:19:01;;;;;;;51.67;21.70;;;;;;;;;;2077925;28;20034;-84
2023/12/01 07:20:22;;;;;;;56.20;23.38;;;;;;;;;;2078936;28;20030;-84
2023/12/01 07:21:44;;;;;;;69.15;25.90;;;;;;;;;;2080342;28;20033;-82
2023/12/01 07:23:05;;;;;;;63.90;24.60;;;;;;;;;;2076539;28;20041;-82
2023/12/01 07:24:26;;;;;;;63.08;24.67;;;;;;;;;;2075635;28;20030;-81
2023/12/01 07:25:47;;;;;;;58.00;23.40;;;;;;;;;;2075770;28;20052;-82
2023/12/01 07:27:09;;;;;;;62.92;25.48;;;;;;;;;;2077038;28;20038;-81
2023/12/01 07:28:31;;;;;;;66.63;25.33;;;;;;;;;;2080027;28;20079;-84
2023/12/01 07:29:52;;;;;;;58.42;23.20;;;;;;;;;;2081416;28;20042;-83
2023/12/01 07:31:13;;;;;;;56.85;22.98;;;;;;;;;;2080311;28;20029;-84
2023/12/01 07:32:34;;;;;;;64.50;22.20;;;;;;;;;;2078762;28;20481;-83
2023/12/01 07:33:55;;;;;;;49.08;23.30;;;;;;;;;;2072532;28;20037;-83
2023/12/01 07:35:16;;;;;;;55.22;22.08;;;;;;;;;;2078861;28;20037;-83
2023/12/01 07:36:37;;;;;;;56.97;22.98;;;;;;;;;;2077916;28;20088;-84
2023/12/01 07:37:58;;;;;;;57.85;24.13;;;;;;;;;;2079787;28;20025;-82
2023/12/01 07:39:22;;;;;;;64.43;24.73;;;;;;;;;;2074521;28;20604;-82
2023/12/01 07:40:44;;;;;;;58.17;22.98;;;;;;;;;;2072109;28;20037;-82
2023/12/01 07:42:07;;;;;;;51.63;23.20;;;;;;;;;;2069169;28;20034;-83
2023/12/01 07:43:28;;;;;;;53.53;20.85;;;;;;;;;;2075574;28;20037;-82
2023/12/01 07:44:49;;;;;;;49.00;20.60;;;;;;;;;;2079384;28;20388;-83
2023/12/01 07:46:10;;;;;;;55.50;30.80;;;;;;;;;;2090766;28;20032;-83
2023/12/01 07:47:32;;;;;;;50.08;21.25;;;;;;;;;;2084976;28;20041;-82
2023/12/01 07:48:52;;;;;;;46.75;19.73;;;;;;;;;;2078143;28;20033;-82
2023/12/01 07:50:15;;;;;;;42.95;19.35;;;;;;;;;;2080557;28;20486;-82
2023/12/01 07:51:36;;;;;;;57.72;22.98;;;;;;;;;;2077707;28;20382;-82
2023/12/01 07:52:57;;;;;;;43.03;18.90;;;;;;;;;;2081337;28;20033;-82
2023/12/01 07:54:19;;;;;;;52.03;20.27;;;;;;;;;;2085472;28;20021;-83